Time;durP1;ratioP1;P1;durP2;ratioP2;P2;SDS_P1;SDS_P2;PMS_P1;PMS_P2;Temp;Humidity;BMP_temperature;BMP_pressure;BME280_temperature;BME280_humidity;BME280_pressure;Samples;Min_cycle;Max_cycle;Signal;HPM_P1;HPM_P2
2023/01/30 00:01:06;;;;;;;21.17;16.85;;;6.20;99.90;;;;;;4957838;29;20031;-89
2023/01/30 00:03:33;;;;;;;19.80;16.42;;;6.10;99.90;;;;;;4942156;29;20095;-90
2023/01/30 00:06:00;;;;;;;22.45;16.98;;;6.10;99.90;;;;;;4926220;29;20489;-89
2023/01/30 00:08:26;;;;;;;20.83;17.30;;;6.10;99.90;;;;;;4957883;29;20039;-89
2023/01/30 00:10:53;;;;;;;18.83;16.38;;;6.00;99.90;;;;;;4941966;29;20102;-89
2023/01/30 00:13:19;;;;;;;21.70;17.25;;;6.00;99.90;;;;;;4955305;28;20397;-90
2023/01/30 00:15:47;;;;;;;25.40;17.05;;;6.00;99.90;;;;;;4941484;29;20102;-92
2023/01/30 00:18:14;;;;;;;18.15;16.25;;;6.00;99.90;;;;;;4942607;29;20048;-89
2023/01/30 00:20:40;;;;;;;20.02;16.63;;;6.10;99.90;;;;;;4941493;29;20039;-91
2023/01/30 00:23:07;;;;;;;20.23;17.05;;;6.10;99.90;;;;;;4941554;29;20031;-90
2023/01/30 00:25:44;;;;;;;23.10;17.27;;;6.10;99.90;;;;;;4941614;29;20023;-89
2023/01/30 00:28:11;;;;;;;21.00;16.73;;;6.10;99.90;;;;;;4940247;29;20046;-89
2023/01/30 00:30:41;;;;;;;19.42;17.25;;;6.10;99.90;;;;;;4941919;29;20548;-88
2023/01/30 00:33:11;;;;;;;19.98;16.75;;;6.10;99.90;;;;;;4957366;29;20038;-90
2023/01/30 00:35:41;;;;;;;20.27;16.75;;;6.10;99.90;;;;;;4941590;29;20039;-90
2023/01/30 00:38:09;;;;;;;21.27;16.95;;;6.10;99.90;;;;;;4941528;29;20039;-91
2023/01/30 00:40:38;;;;;;;19.58;17.30;;;6.10;99.90;;;;;;4941453;29;20023;-89
2023/01/30 00:48:37;;;;;;;21.45;17.58;;;6.20;99.90;;;;;;4957246;29;20031;-90
2023/01/30 00:51:09;;;;;;;19.52;17.20;;;6.40;99.90;;;;;;4941259;29;20028;-90
2023/01/30 00:53:36;;;;;;;18.55;16.67;;;6.40;99.90;;;;;;4941080;29;20484;-92
2023/01/30 00:56:03;;;;;;;18.38;16.65;;;6.40;99.90;;;;;;4940918;29;20032;-90
2023/01/30 00:58:29;;;;;;;18.80;16.77;;;6.40;99.90;;;;;;4925214;29;20498;-91
2023/01/30 01:00:56;;;;;;;19.83;17.73;;;6.50;99.90;;;;;;4941171;29;20540;-88
2023/01/30 01:03:26;;;;;;;21.60;17.75;;;6.50;99.90;;;;;;4941235;29;20545;-90
2023/01/30 01:05:53;;;;;;;19.30;17.38;;;6.60;99.90;;;;;;4941101;29;20516;-89
2023/01/30 01:08:21;;;;;;;20.98;18.35;;;6.60;99.90;;;;;;4941191;29;20034;-89
2023/01/30 01:10:48;;;;;;;20.52;17.48;;;6.60;99.90;;;;;;4925726;29;20027;-89
2023/01/30 01:13:14;;;;;;;20.88;18.63;;;6.60;99.90;;;;;;4925135;29;20038;-90
2023/01/30 01:15:41;;;;;;;19.48;17.42;;;6.60;99.90;;;;;;4956485;29;20086;-89
2023/01/30 01:18:08;;;;;;;20.20;18.20;;;6.60;99.90;;;;;;4956614;29;20067;-90
2023/01/30 01:20:34;;;;;;;19.98;17.85;;;6.60;99.90;;;;;;4924719;29;20077;-90
2023/01/30 01:23:03;;;;;;;20.60;18.45;;;6.70;99.90;;;;;;4924676;29;20558;-88
2023/01/30 01:25:30;;;;;;;20.98;18.77;;;6.70;99.90;;;;;;4924473;29;20023;-89
2023/01/30 01:27:56;;;;;;;19.75;17.95;;;6.70;99.90;;;;;;4924761;29;20051;-90
2023/01/30 01:30:26;;;;;;;20.15;18.33;;;6.70;99.90;;;;;;4925279;29;20058;-90
2023/01/30 01:32:53;;;;;;;19.70;17.90;;;6.70;99.90;;;;;;4940537;29;20120;-89
2023/01/30 01:35:19;;;;;;;19.42;17.73;;;6.70;99.90;;;;;;4924346;29;20027;-89
2023/01/30 01:37:46;;;;;;;19.63;17.95;;;6.80;99.90;;;;;;4924420;29;20098;-90
2023/01/30 01:43:22;;;;;;;20.13;18.23;;;6.80;99.90;;;;;;4956090;29;20031;-90
2023/01/30 01:46:03;;;;;;;20.48;18.40;;;6.80;99.90;;;;;;4924551;29;20122;-88
2023/01/30 01:48:46;;;;;;;21.10;19.13;;;6.80;99.90;;;;;;4940175;29;20170;-89
2023/01/30 01:51:36;;;;;;;20.13;18.33;;;6.90;99.90;;;;;;4940081;29;20077;-88
2023/01/30 01:54:15;;;;;;;20.52;18.73;;;6.90;99.90;;;;;;4939944;29;20078;-90
2023/01/30 01:56:47;;;;;;;20.42;18.52;;;6.90;99.90;;;;;;4941809;29;20051;-89
2023/01/30 01:59:48;;;;;;;21.20;19.10;;;6.90;99.90;;;;;;4956021;29;20478;-90
2023/01/30 02:02:16;;;;;;;20.40;18.63;;;6.90;99.90;;;;;;4882528;29;20048;-88
2023/01/30 02:05:02;;;;;;;21.13;18.92;;;6.90;99.90;;;;;;4882693;29;20124;-91
2023/01/30 02:07:35;;;;;;;20.20;18.48;;;6.90;99.90;;;;;;4882802;29;20051;-88
2023/01/30 02:10:03;;;;;;;21.30;19.20;;;6.90;99.90;;;;;;4882295;29;20403;-88
2023/01/30 02:12:30;;;;;;;20.77;18.85;;;6.90;99.90;;;;;;4882437;29;20032;-89
2023/01/30 02:14:58;;;;;;;20.05;18.25;;;6.90;99.90;;;;;;4883134;29;20040;-90
2023/01/30 02:17:24;;;;;;;21.52;19.30;;;6.90;99.90;;;;;;4882381;29;20093;-90
2023/01/30 02:20:15;;;;;;;20.00;18.15;;;6.90;99.90;;;;;;4882652;29;20048;-89
2023/01/30 02:23:16;;;;;;;21.02;18.90;;;6.80;99.90;;;;;;4882167;29;20032;-92
2023/01/30 02:26:02;;;;;;;21.67;19.55;;;6.80;99.90;;;;;;4882287;29;20076;-89
2023/01/30 02:29:09;;;;;;;24.25;19.17;;;6.80;99.90;;;;;;4879495;29;20391;-89
2023/01/30 02:32:03;;;;;;;20.52;18.58;;;6.80;99.90;;;;;;4863463;29;20037;-89
2023/01/30 02:34:38;;;;;;;;;;;6.80;99.90;;;;;;4894890;29;20033;-91
2023/01/30 02:37:28;;;;;;;19.80;18.20;;;6.70;99.90;;;;;;4881904;29;20301;-92
2023/01/30 02:40:04;;;;;;;19.58;17.77;;;6.80;99.90;;;;;;4939636;29;20394;-91
2023/01/30 02:42:52;;;;;;;19.33;17.88;;;6.80;99.90;;;;;;4955247;29;20039;-92
2023/01/30 02:45:33;;;;;;;19.92;18.33;;;6.80;99.90;;;;;;4955335;29;20114;-89
2023/01/30 02:48:06;;;;;;;19.95;18.13;;;6.80;99.90;;;;;;4955221;29;20100;-87
2023/01/30 02:50:42;;;;;;;19.67;18.15;;;6.80;99.90;;;;;;4955236;29;20031;-90
2023/01/30 02:53:10;;;;;;;20.05;18.38;;;6.80;99.90;;;;;;4954992;29;20134;-90
2023/01/30 02:55:40;;;;;;;20.00;18.35;;;6.80;99.90;;;;;;4955111;28;20031;-89
2023/01/30 02:58:08;;;;;;;21.00;19.10;;;6.80;99.90;;;;;;4986563;28;20066;-89
2023/01/30 03:00:34;;;;;;;19.95;18.30;;;6.90;99.90;;;;;;4971134;28;20031;-91
2023/01/30 03:03:09;;;;;;;19.63;18.00;;;6.80;99.90;;;;;;4971161;28;20039;-89
2023/01/30 03:05:44;;;;;;;19.65;17.80;;;6.90;99.90;;;;;;4971190;28;20031;-88
2023/01/30 03:08:32;;;;;;;19.13;17.60;;;6.90;99.90;;;;;;4952846;29;20038;-89
2023/01/30 03:11:07;;;;;;;21.75;17.95;;;6.90;99.90;;;;;;4970663;28;20023;-88
2023/01/30 03:14:03;;;;;;;20.17;18.25;;;6.90;99.90;;;;;;4954821;28;20113;-88
2023/01/30 03:16:40;;;;;;;18.98;16.90;;;6.80;99.90;;;;;;4954828;29;20046;-88
2023/01/30 03:19:11;;;;;;;18.70;16.77;;;6.80;99.90;;;;;;4954886;28;20031;-89
2023/01/30 03:21:43;;;;;;;17.77;16.08;;;6.80;99.90;;;;;;4955072;29;20023;-90
2023/01/30 03:24:14;;;;;;;19.70;16.30;;;6.80;99.90;;;;;;4954950;28;20038;-89
2023/01/30 03:26:55;;;;;;;17.85;16.08;;;6.80;99.90;;;;;;4954680;28;20489;-90
2023/01/30 03:29:22;;;;;;;18.60;16.38;;;6.80;99.90;;;;;;4954917;28;20404;-90
2023/01/30 03:31:49;;;;;;;24.38;16.63;;;6.80;99.90;;;;;;4954711;29;20051;-89
2023/01/30 03:34:16;;;;;;;19.20;16.33;;;6.80;99.90;;;;;;4954760;28;20058;-88
2023/01/30 03:36:43;;;;;;;17.10;15.40;;;6.80;99.90;;;;;;4954580;28;20489;-91
2023/01/30 03:39:10;;;;;;;17.90;15.98;;;6.90;99.90;;;;;;4970686;28;20027;-91
2023/01/30 03:41:38;;;;;;;17.23;15.52;;;6.90;99.90;;;;;;4953395;29;20111;-90
2023/01/30 03:44:05;;;;;;;17.25;15.48;;;6.90;99.90;;;;;;4954751;29;20038;-89
2023/01/30 03:46:32;;;;;;;16.98;15.45;;;7.00;99.90;;;;;;4954656;28;20033;-91
2023/01/30 03:48:59;;;;;;;17.55;15.88;;;7.00;99.90;;;;;;4956175;28;20059;-88
2023/01/30 03:51:26;;;;;;;18.80;16.30;;;7.00;99.90;;;;;;4958202;28;20055;-90
2023/01/30 03:53:52;;;;;;;18.48;16.48;;;7.00;99.90;;;;;;4958047;29;20035;-91
2023/01/30 03:56:19;;;;;;;18.38;16.48;;;7.00;99.90;;;;;;4957924;28;20501;-90
2023/01/30 03:58:45;;;;;;;18.88;16.83;;;7.00;99.90;;;;;;4922913;29;20052;-91
2023/01/30 04:01:20;;;;;;;18.15;16.33;;;7.00;99.90;;;;;;4908249;29;20039;-89
2023/01/30 04:03:47;;;;;;;17.40;15.60;;;7.00;99.90;;;;;;4922886;29;20508;-89
2023/01/30 04:06:15;;;;;;;19.02;15.80;;;7.00;99.90;;;;;;4907294;29;20034;-89
2023/01/30 04:08:42;;;;;;;16.35;14.85;;;7.10;99.90;;;;;;4922953;29;20508;-89
2023/01/30 04:11:16;;;;;;;16.77;15.07;;;7.10;99.90;;;;;;4929757;29;20090;-88
2023/01/30 04:13:43;;;;;;;16.65;14.80;;;7.10;99.90;;;;;;4941816;29;20042;-89
2023/01/30 04:16:28;;;;;;;16.52;14.82;;;7.00;99.90;;;;;;4941867;29;20027;-90
2023/01/30 04:19:13;;;;;;;16.98;15.07;;;7.10;99.90;;;;;;4944636;29;20054;-88
2023/01/30 04:21:41;;;;;;;17.45;15.48;;;7.10;99.90;;;;;;4942118;29;20095;-92
2023/01/30 04:24:08;;;;;;;16.30;14.68;;;7.10;99.90;;;;;;4942646;29;20094;-90
2023/01/30 04:26:35;;;;;;;16.83;15.10;;;7.10;99.90;;;;;;4942865;29;20122;-88
2023/01/30 04:29:02;;;;;;;16.98;15.38;;;7.10;99.90;;;;;;4944835;29;20028;-88
2023/01/30 04:31:30;;;;;;;16.85;15.02;;;7.00;99.90;;;;;;4941500;29;20027;-90
2023/01/30 04:34:06;;;;;;;21.52;15.50;;;7.00;99.90;;;;;;4941906;29;20034;-90
2023/01/30 04:36:35;;;;;;;16.23;14.70;;;7.00;99.90;;;;;;4941251;29;20130;-89
2023/01/30 04:39:03;;;;;;;17.05;15.38;;;7.00;99.90;;;;;;4925454;29;20035;-89
2023/01/30 04:41:31;;;;;;;17.50;15.60;;;7.00;99.90;;;;;;4925776;29;20477;-89
2023/01/30 04:44:01;;;;;;;16.55;14.90;;;6.90;99.90;;;;;;4926038;29;20485;-88
2023/01/30 04:46:40;;;;;;;17.00;15.30;;;7.00;99.90;;;;;;4927010;29;20493;-90
2023/01/30 04:49:09;;;;;;;17.95;15.40;;;6.90;99.90;;;;;;4925358;29;20169;-89
2023/01/30 04:51:35;;;;;;;16.90;15.30;;;6.90;99.90;;;;;;4925246;29;20106;-91
2023/01/30 04:54:03;;;;;;;18.23;15.52;;;6.90;99.90;;;;;;4925336;29;20386;-88
2023/01/30 04:56:32;;;;;;;16.42;14.82;;;6.90;99.90;;;;;;4925739;28;20434;-90
2023/01/30 04:58:59;;;;;;;17.33;15.48;;;6.90;99.90;;;;;;4940746;28;20117;-89
2023/01/30 05:01:33;;;;;;;19.20;14.90;;;6.90;99.90;;;;;;4925691;29;20032;-89
2023/01/30 05:04:01;;;;;;;17.00;15.13;;;6.90;99.90;;;;;;4925192;29;20031;-88
2023/01/30 05:06:30;;;;;;;17.30;15.02;;;6.90;99.90;;;;;;4925122;29;20579;-91
2023/01/30 05:08:57;;;;;;;17.30;14.90;;;6.90;99.90;;;;;;4925050;29;20460;-90
2023/01/30 05:11:26;;;;;;;15.55;13.95;;;6.80;99.90;;;;;;4925159;29;20050;-90
2023/01/30 05:13:53;;;;;;;18.38;15.27;;;6.80;99.90;;;;;;4924871;29;20035;-90
2023/01/30 05:16:21;;;;;;;17.08;14.95;;;6.80;99.90;;;;;;4924858;29;20042;-88
2023/01/30 05:18:48;;;;;;;16.60;15.00;;;6.80;99.90;;;;;;4924627;29;20047;-92
2023/01/30 05:21:18;;;;;;;19.42;15.13;;;6.80;99.90;;;;;;4940535;29;20035;-91
2023/01/30 05:23:45;;;;;;;16.00;14.48;;;6.80;99.90;;;;;;4932731;29;20030;-90
2023/01/30 05:26:12;;;;;;;15.75;14.23;;;6.90;99.90;;;;;;4940511;29;20038;-92
2023/01/30 05:28:40;;;;;;;15.48;13.98;;;6.90;99.90;;;;;;4940454;29;20023;-90
2023/01/30 05:31:11;;;;;;;20.98;14.73;;;6.90;99.90;;;;;;4924541;29;20035;-87
2023/01/30 05:33:38;;;;;;;17.52;14.38;;;7.00;99.90;;;;;;4940401;29;20027;-90
2023/01/30 05:36:06;;;;;;;17.48;14.48;;;7.00;99.90;;;;;;4940286;29;20023;-89
2023/01/30 05:38:33;;;;;;;19.65;14.88;;;7.00;99.90;;;;;;4940411;29;20603;-90
2023/01/30 05:41:07;;;;;;;17.00;14.80;;;7.00;99.90;;;;;;4940068;29;20027;-88
2023/01/30 05:43:34;;;;;;;16.75;14.82;;;7.00;99.90;;;;;;4940272;29;20050;-91
2023/01/30 05:46:03;;;;;;;17.10;14.77;;;7.00;99.90;;;;;;4940286;29;20031;-90
2023/01/30 05:48:30;;;;;;;17.83;15.40;;;7.10;99.90;;;;;;4940297;29;20024;-91
2023/01/30 05:50:58;;;;;;;27.30;18.25;;;7.10;99.90;;;;;;4942697;29;20027;-87
2023/01/30 05:53:28;;;;;;;18.90;16.15;;;7.10;99.90;;;;;;4952214;29;20075;-92
2023/01/30 05:55:58;;;;;;;18.08;15.52;;;7.10;99.90;;;;;;4935120;29;20441;-90
2023/01/30 05:58:26;;;;;;;18.33;16.38;;;7.10;99.90;;;;;;4953348;29;20126;-90
2023/01/30 06:00:52;;;;;;;21.45;16.02;;;7.20;99.90;;;;;;4961473;28;20107;-90
2023/01/30 06:03:19;;;;;;;17.60;15.80;;;7.20;99.90;;;;;;4952712;29;20062;-90
2023/01/30 06:05:46;;;;;;;18.88;15.10;;;7.20;99.90;;;;;;4938958;29;20036;-88
2023/01/30 06:08:12;;;;;;;17.73;15.80;;;7.20;99.90;;;;;;4964264;28;20028;-89
2023/01/30 06:10:39;;;;;;;17.83;15.20;;;7.10;99.90;;;;;;4955060;28;20083;-89
2023/01/30 06:13:05;;;;;;;16.83;14.50;;;7.10;99.90;;;;;;4920677;29;20494;-89
2023/01/30 06:15:38;;;;;;;18.02;14.40;;;7.10;99.90;;;;;;4921205;29;20039;-88
2023/01/30 06:18:05;;;;;;;15.68;14.05;;;7.10;99.90;;;;;;4936367;29;20086;-90
2023/01/30 06:20:34;;;;;;;16.70;14.52;;;7.00;99.90;;;;;;4920691;29;20023;-89
2023/01/30 06:23:01;;;;;;;18.63;14.10;;;7.00;99.90;;;;;;4936328;29;20057;-89
2023/01/30 06:25:28;;;;;;;16.67;14.45;;;7.00;99.90;;;;;;4904617;29;20075;-91
2023/01/30 06:27:55;;;;;;;19.60;13.48;;;7.00;99.90;;;;;;4925938;29;20059;-91
2023/01/30 06:30:22;;;;;;;18.33;14.15;;;7.00;99.90;;;;;;4945663;29;20059;-90
2023/01/30 06:32:51;;;;;;;18.52;14.85;;;7.00;99.90;;;;;;4955395;29;20036;-91
2023/01/30 06:35:18;;;;;;;15.63;13.93;;;7.00;99.90;;;;;;4968619;28;20083;-90
2023/01/30 06:37:45;;;;;;;17.75;13.10;;;7.10;99.90;;;;;;4969186;28;20509;-91
2023/01/30 06:40:12;;;;;;;15.80;13.77;;;7.10;99.90;;;;;;4938641;29;20470;-90
2023/01/30 06:42:42;;;;;;;15.25;13.65;;;7.20;99.90;;;;;;4923451;29;20432;-89
2023/01/30 06:45:10;;;;;;;16.08;13.95;;;7.20;99.90;;;;;;4941682;29;20035;-91
2023/01/30 06:47:47;;;;;;;15.43;13.88;;;7.20;99.90;;;;;;4920558;29;20031;-91
2023/01/30 06:50:16;;;;;;;16.38;14.43;;;7.20;99.90;;;;;;4935783;29;20076;-90
2023/01/30 06:52:47;;;;;;;16.17;13.77;;;7.20;99.90;;;;;;4920347;29;20026;-91
2023/01/30 06:55:16;;;;;;;17.38;14.63;;;7.20;99.90;;;;;;4920545;29;20031;-89
2023/01/30 07:56:25;;;;;;;20.55;18.50;;;8.30;99.90;;;;;;5364010;23;20075;-92
2023/01/30 07:58:59;;;;;;;20.20;18.23;;;8.40;99.90;;;;;;4935469;29;20054;-89
2023/01/30 08:01:25;;;;;;;20.60;18.70;;;8.50;99.90;;;;;;4937421;29;20035;-88
2023/01/30 08:03:54;;;;;;;22.73;20.33;;;8.50;99.90;;;;;;4935847;29;20034;-86
2023/01/30 08:06:21;;;;;;;22.75;19.42;;;8.60;99.90;;;;;;4926112;29;20592;-86
2023/01/30 08:08:50;;;;;;;21.73;19.60;;;8.60;99.90;;;;;;4920743;29;20038;-89
2023/01/30 08:11:17;;;;;;;21.08;18.83;;;8.80;99.90;;;;;;4921142;29;20043;-90
2023/01/30 08:13:44;;;;;;;21.95;19.88;;;8.80;99.90;;;;;;4920885;29;20036;-86
2023/01/30 08:16:10;;;;;;;21.10;18.98;;;8.80;99.90;;;;;;4921551;29;20027;-89
2023/01/30 08:18:37;;;;;;;21.23;19.30;;;8.90;99.90;;;;;;4921915;29;20124;-86
2023/01/30 08:21:05;;;;;;;22.08;20.10;;;8.90;99.90;;;;;;4919415;29;20024;-87
2023/01/30 08:23:33;;;;;;;20.95;19.23;;;9.00;99.90;;;;;;4911309;29;20039;-86
2023/01/30 08:26:02;;;;;;;21.80;19.70;;;8.90;99.90;;;;;;4907805;29;20032;-85
2023/01/30 08:28:29;;;;;;;21.90;19.83;;;9.00;99.90;;;;;;4908577;29;20046;-87
2023/01/30 08:30:57;;;;;;;21.38;19.48;;;9.00;99.90;;;;;;4907594;29;20027;-89
2023/01/30 08:33:24;;;;;;;22.35;20.10;;;9.20;99.90;;;;;;4907474;29;20036;-88
2023/01/30 08:35:51;;;;;;;22.80;20.48;;;9.40;99.90;;;;;;4906580;29;20033;-88
2023/01/30 08:38:17;;;;;;;21.90;19.75;;;9.40;99.90;;;;;;4909502;29;20091;-88
2023/01/30 08:40:46;;;;;;;21.35;19.42;;;9.50;99.90;;;;;;4917526;29;20027;-88
2023/01/30 08:43:13;;;;;;;23.08;20.67;;;9.80;99.90;;;;;;4906792;29;20031;-88
2023/01/30 08:45:40;;;;;;;23.98;21.70;;;10.10;99.90;;;;;;4908102;29;20024;-83
2023/01/30 08:48:06;;;;;;;24.48;22.33;;;10.20;99.90;;;;;;4907747;29;20034;-84
2023/01/30 08:50:33;;;;;;;26.13;23.63;;;10.30;99.90;;;;;;4901236;29;20490;-83
2023/01/30 08:53:08;;;;;;;24.98;22.75;;;10.40;99.90;;;;;;4921123;29;20163;-83
2023/01/30 08:55:35;;;;;;;24.50;22.30;;;10.30;99.90;;;;;;4926655;29;20114;-83
2023/01/30 08:58:01;;;;;;;25.20;22.80;;;10.20;99.90;;;;;;4927282;29;20573;-89
2023/01/30 09:00:28;;;;;;;24.88;22.65;;;10.10;99.90;;;;;;4929369;29;20031;-89
2023/01/30 09:02:56;;;;;;;23.08;20.98;;;10.20;99.90;;;;;;4916260;29;20033;-89
2023/01/30 09:05:24;;;;;;;24.33;22.02;;;10.20;99.90;;;;;;4891133;29;20111;-87
2023/01/30 09:07:53;;;;;;;23.15;21.20;;;10.20;99.90;;;;;;4893571;29;20510;-87
2023/01/30 09:10:25;;;;;;;23.90;21.45;;;10.30;99.90;;;;;;4915977;29;20398;-87
2023/01/30 09:12:51;;;;;;;23.58;21.48;;;10.20;99.90;;;;;;4898574;29;20474;-88
2023/01/30 09:15:17;;;;;;;24.63;22.38;;;10.10;99.90;;;;;;4897659;29;20036;-88
2023/01/30 09:17:44;;;;;;;23.77;21.42;;;10.10;99.90;;;;;;4898966;29;20095;-88
2023/01/30 09:20:11;;;;;;;24.35;21.80;;;10.00;99.90;;;;;;4900320;29;20035;-84
2023/01/30 09:22:38;;;;;;;24.17;21.40;;;10.00;99.90;;;;;;4896918;29;20087;-83
2023/01/30 09:25:05;;;;;;;25.35;22.63;;;9.90;99.90;;;;;;4899132;29;20079;-85
2023/01/30 09:27:32;;;;;;;23.17;20.95;;;10.00;99.90;;;;;;4912351;29;20090;-85
2023/01/30 09:29:58;;;;;;;22.35;20.30;;;10.10;99.90;;;;;;4900944;29;20032;-84
2023/01/30 09:32:24;;;;;;;22.98;20.67;;;10.20;99.90;;;;;;4899762;29;20028;-85
2023/01/30 09:34:50;;;;;;;23.55;21.27;;;10.30;99.90;;;;;;4905534;29;20046;-73
2023/01/30 09:37:20;;;;;;;24.23;21.88;;;10.40;99.90;;;;;;4946070;29;20040;-91
2023/01/30 09:39:47;;;;;;;24.58;22.20;;;10.40;99.90;;;;;;4916283;29;20079;-92
2023/01/30 09:42:32;;;;;;;25.05;22.23;;;10.30;99.90;;;;;;4898346;29;20036;-90
2023/01/30 09:45:28;;;;;;;23.77;21.38;;;10.10;99.90;;;;;;4912325;29;20044;-90
2023/01/30 09:48:12;;;;;;;22.83;20.63;;;9.90;99.90;;;;;;4897064;29;20106;-92
2023/01/30 09:51:02;;;;;;;22.05;20.05;;;9.80;99.90;;;;;;4897724;29;20028;-90
2023/01/30 09:53:34;;;;;;;23.58;20.65;;;9.70;99.90;;;;;;4897147;29;20510;-93
2023/01/30 09:56:05;;;;;;;22.88;20.42;;;9.80;99.90;;;;;;4897316;29;20063;-89
2023/01/30 09:58:48;;;;;;;22.83;20.50;;;9.90;99.90;;;;;;4924743;29;20449;-89
2023/01/30 10:01:22;;;;;;;21.75;19.70;;;10.00;99.90;;;;;;4928870;29;20478;-91
2023/01/30 10:04:11;;;;;;;23.35;20.92;;;9.90;99.90;;;;;;4927486;29;20036;-91
2023/01/30 10:07:09;;;;;;;21.52;19.35;;;9.90;99.90;;;;;;4912711;29;20028;-91
2023/01/30 10:09:52;;;;;;;23.27;19.83;;;9.70;99.90;;;;;;4946323;29;20031;-93
2023/01/30 10:12:36;;;;;;;22.70;19.25;;;9.60;99.90;;;;;;4947287;29;20040;-93
2023/01/30 10:15:33;;;;;;;23.75;19.10;;;9.50;99.90;;;;;;4916174;29;20463;-92
2023/01/30 10:18:28;;;;;;;21.60;19.35;;;9.50;99.90;;;;;;4931489;29;20039;-91
2023/01/30 10:21:18;;;;;;;22.25;19.92;;;9.50;99.90;;;;;;4946747;29;20032;-95
2023/01/30 10:24:03;;;;;;;26.35;21.40;;;9.60;99.90;;;;;;4947642;29;20036;-92
2023/01/30 10:26:30;;;;;;;25.55;21.42;;;9.60;99.90;;;;;;4926187;29;20028;-89
2023/01/30 10:29:19;;;;;;;29.50;23.10;;;9.60;99.90;;;;;;4938743;29;20087;-93
2023/01/30 10:31:53;;;;;;;27.30;21.38;;;9.50;99.90;;;;;;4937514;29;20115;-92
2023/01/30 10:34:33;;;;;;;26.27;20.52;;;9.70;99.90;;;;;;4936187;29;20401;-91
2023/01/30 10:37:17;;;;;;;24.85;20.60;;;10.10;99.90;;;;;;4917500;29;20072;-90
2023/01/30 10:40:02;;;;;;;26.97;21.27;;;10.30;99.90;;;;;;4902172;29;20055;-92
2023/01/30 10:42:37;;;;;;;30.10;23.27;;;10.30;99.90;;;;;;4902487;29;20028;-91
2023/01/30 10:45:19;;;;;;;22.52;19.30;;;10.30;99.90;;;;;;4918286;29;20115;-92
2023/01/30 10:48:04;;;;;;;22.85;20.45;;;10.30;99.90;;;;;;4902583;29;20121;-91
2023/01/30 10:50:59;;;;;;;22.88;20.40;;;10.20;99.90;;;;;;4902304;29;20024;-90
2023/01/30 10:53:37;;;;;;;25.13;22.42;;;10.20;99.90;;;;;;4926549;29;20040;-91
2023/01/30 10:56:24;;;;;;;22.13;19.70;;;10.30;99.90;;;;;;4904991;29;20523;-90
2023/01/30 10:59:26;;;;;;;85.32;54.60;;;10.30;99.90;;;;;;4877356;29;20067;-93
2023/01/30 11:02:01;;;;;;;20.65;18.70;;;10.30;99.90;;;;;;4879734;29;20056;-93
2023/01/30 11:04:49;;;;;;;25.48;20.95;;;10.20;99.90;;;;;;4864008;29;20037;-93
2023/01/30 11:07:19;;;;;;;22.60;20.25;;;10.20;99.90;;;;;;4847811;29;20076;-92
2023/01/30 11:09:47;;;;;;;22.58;20.08;;;10.30;99.90;;;;;;4863518;29;20080;-92
2023/01/30 11:12:14;;;;;;;21.25;18.92;;;10.20;99.90;;;;;;4863307;29;20128;-91
2023/01/30 11:14:51;;;;;;;20.45;18.27;;;10.20;99.90;;;;;;4863484;29;20102;-91
2023/01/30 11:17:29;;;;;;;19.95;17.98;;;10.10;99.90;;;;;;4862997;29;20438;-91
2023/01/30 11:20:01;;;;;;;19.90;18.00;;;10.00;99.90;;;;;;4863079;29;20065;-92
2023/01/30 11:22:30;;;;;;;20.83;18.70;;;10.20;99.90;;;;;;4863723;29;20104;-91
2023/01/30 11:25:23;;;;;;;22.13;19.83;;;10.20;99.90;;;;;;4863042;29;20021;-92
2023/01/30 11:27:55;;;;;;;23.35;20.00;;;10.30;99.90;;;;;;4863096;29;20025;-91
2023/01/30 11:30:28;;;;;;;22.42;20.23;;;10.40;99.90;;;;;;4863290;29;20124;-91
2023/01/30 11:33:16;;;;;;;21.83;19.73;;;10.50;99.90;;;;;;4863088;29;20037;-92
2023/01/30 11:35:59;;;;;;;22.35;20.08;;;10.70;99.90;;;;;;4848224;29;20048;-92
2023/01/30 11:38:31;;;;;;;23.17;20.98;;;10.80;99.90;;;;;;4882808;29;20044;-91
2023/01/30 11:41:06;;;;;;;23.63;21.33;;;10.90;99.90;;;;;;4920734;29;20028;-94
2023/01/30 11:43:36;;;;;;;23.13;20.88;;;11.10;99.90;;;;;;4920859;29;20378;-91
2023/01/30 11:46:04;;;;;;;25.15;22.73;;;11.00;99.90;;;;;;4920760;29;20036;-93
2023/01/30 11:48:34;;;;;;;23.60;21.30;;;11.10;99.90;;;;;;4921021;29;20035;-92
2023/01/30 11:51:04;;;;;;;24.63;22.15;;;11.10;99.90;;;;;;4920642;29;20050;-91
2023/01/30 11:53:43;;;;;;;26.00;23.27;;;10.90;99.90;;;;;;4921334;29;20032;-93
2023/01/30 11:56:35;;;;;;;24.83;22.52;;;10.80;99.90;;;;;;4930279;29;20054;-91
2023/01/30 11:59:07;;;;;;;23.30;21.30;;;10.80;99.90;;;;;;4924004;29;20043;-92
2023/01/30 12:01:35;;;;;;;24.05;21.90;;;10.70;99.90;;;;;;4923685;29;20042;-92
2023/01/30 12:04:09;;;;;;;22.85;20.85;;;10.70;99.90;;;;;;4924081;29;20027;-93
2023/01/30 12:06:39;;;;;;;22.10;20.40;;;10.60;99.90;;;;;;4923527;29;20035;-93
2023/01/30 12:09:26;;;;;;;23.85;21.42;;;10.20;99.90;;;;;;4923120;29;20087;-94
2023/01/30 12:11:52;;;;;;;22.75;20.38;;;10.00;99.90;;;;;;4926563;29;20031;-92
2023/01/30 12:14:26;;;;;;;24.50;21.90;;;9.90;99.90;;;;;;4926645;29;20028;-91
2023/01/30 12:17:06;;;;;;;24.75;22.05;;;9.90;99.90;;;;;;4927497;29;20106;-94
2023/01/30 12:19:49;;;;;;;26.38;21.80;;;10.00;99.90;;;;;;4926167;29;20031;-94
2023/01/30 12:22:40;;;;;;;29.80;22.25;;;10.10;99.90;;;;;;4926735;29;20043;-92
2023/01/30 12:25:22;;;;;;;22.83;20.25;;;10.00;99.90;;;;;;4926030;29;20521;-93
2023/01/30 12:28:08;;;;;;;24.40;20.42;;;10.10;99.90;;;;;;4926165;29;20031;-92
2023/01/30 12:31:01;;;;;;;23.00;19.98;;;10.30;99.90;;;;;;4928307;29;20055;-93
2023/01/30 12:33:33;;;;;;;23.77;21.13;;;10.40;99.90;;;;;;4926056;29;20373;-91
2023/01/30 12:36:33;;;;;;;23.55;21.05;;;10.40;99.90;;;;;;4926370;29;20034;-91
2023/01/30 12:39:18;;;;;;;21.98;19.38;;;10.40;99.90;;;;;;4920330;29;20047;-94
2023/01/30 12:42:27;;;;;;;23.73;21.25;;;10.40;99.90;;;;;;4932826;29;20027;-93
2023/01/30 12:45:13;;;;;;;26.95;20.98;;;10.20;99.90;;;;;;4907968;29;20034;-92
2023/01/30 12:48:07;;;;;;;20.23;18.25;;;10.10;99.90;;;;;;4907159;29;20036;-92
2023/01/30 12:50:53;;;;;;;22.23;20.23;;;10.10;99.90;;;;;;4907776;29;20036;-93
2023/01/30 12:53:44;;;;;;;25.80;22.80;;;10.10;99.90;;;;;;4923336;29;20505;-94
2023/01/30 12:56:27;;;;;;;23.17;20.88;;;10.10;99.90;;;;;;4922848;29;20051;-93
2023/01/30 12:59:09;;;;;;;20.73;18.98;;;10.10;99.90;;;;;;4923804;29;20126;-93
2023/01/30 13:02:07;;;;;;;21.65;19.63;;;10.10;99.90;;;;;;4926189;29;20050;-91
2023/01/30 13:04:43;;;;;;;21.98;20.02;;;10.00;99.90;;;;;;4926122;29;20484;-90
2023/01/30 13:07:27;;;;;;;26.20;23.52;;;10.00;99.90;;;;;;4926105;28;20055;-92
2023/01/30 13:10:25;;;;;;;27.52;24.73;;;10.20;99.90;;;;;;4926296;29;20031;-92
2023/01/30 13:13:22;;;;;;;27.48;24.75;;;10.40;99.90;;;;;;4932821;29;20039;-93
2023/01/30 13:16:18;;;;;;;26.00;23.40;;;10.50;99.90;;;;;;4927471;29;20126;-93
2023/01/30 13:19:07;;;;;;;27.58;24.70;;;10.60;99.90;;;;;;4924807;29;20031;-93
2023/01/30 13:21:46;;;;;;;24.98;22.58;;;10.50;99.90;;;;;;4928317;29;20055;-92
2023/01/30 13:24:31;;;;;;;23.90;21.65;;;10.50;99.90;;;;;;4925846;29;20039;-93
2023/01/30 13:27:02;;;;;;;21.63;19.48;;;10.40;99.90;;;;;;4921886;29;20038;-94
2023/01/30 13:29:39;;;;;;;22.40;20.23;;;10.30;99.90;;;;;;4938128;29;20028;-92
2023/01/30 13:32:34;;;;;;;22.17;20.15;;;10.20;99.90;;;;;;4939679;29;20031;-94
2023/01/30 13:35:13;;;;;;;22.30;20.20;;;10.00;99.90;;;;;;4895736;29;20421;-90
2023/01/30 13:37:41;;;;;;;23.20;21.05;;;10.00;99.90;;;;;;4938089;29;20055;-92
2023/01/30 13:40:22;;;;;;;18.90;17.48;;;9.90;99.90;;;;;;4938195;29;20028;-94
2023/01/30 13:42:57;;;;;;;23.17;20.90;;;9.80;99.90;;;;;;4937636;29;20326;-91
2023/01/30 13:45:34;;;;;;;21.35;19.35;;;9.80;99.90;;;;;;4908778;29;20028;-95
2023/01/30 13:48:06;;;;;;;22.27;19.92;;;9.80;99.90;;;;;;4937972;29;20028;-92
2023/01/30 13:50:33;;;;;;;22.08;19.77;;;9.70;99.90;;;;;;4905945;29;20035;-93
2023/01/30 13:53:27;;;;;;;21.15;19.05;;;9.60;99.90;;;;;;4905892;29;20028;-93
2023/01/30 13:56:35;;;;;;;25.13;22.52;;;9.50;99.90;;;;;;4906408;29;20051;-92
2023/01/30 13:59:21;;;;;;;21.52;19.38;;;9.50;99.90;;;;;;4919428;29;20134;-92
2023/01/30 14:02:05;;;;;;;19.85;17.85;;;9.50;99.90;;;;;;4922406;29;20035;-92
2023/01/30 14:04:41;;;;;;;22.42;20.23;;;9.50;99.90;;;;;;4918361;29;20040;-91
2023/01/30 14:07:12;;;;;;;20.92;19.02;;;9.60;99.90;;;;;;4923421;29;20071;-94
2023/01/30 14:12:21;;;;;;;24.83;22.13;;;9.70;99.90;;;;;;5136500;23;20063;-90
2023/01/30 14:15:20;;;;;;;24.77;21.25;;;9.60;99.90;;;;;;4944986;28;20114;-93
2023/01/30 14:18:06;;;;;;;23.55;21.13;;;9.70;99.90;;;;;;4948681;28;20042;-92